עמוד ראשי
METAR-TAF:

METAR-TAF

שדות תעופה :

Pisco, פרו

קו רוחב: 13-45S, קו אורך: 076-17W, גובה: 8מטר

תצפית מזג אוויר נוכחית

הדו"ח נערך לפני 13דקות, בשעה 01:00 UTC
רוח 4קשר מכיוון מערב/צפון-מערב, משתנה בין מערב/דרום-מערב ו צפון-מערב
טמפרטורת 18 צלסיוס
לחות 83%
לחץ 1012 hPa
ראות: 8000מטר
מעונן בגובה 1700רגל

METAR: SPSO 210100Z 29004KT 250V320 8000 OVC017 18/15 Q1012 RMK PP000

זמן: 20:13 (01:13 UTC)

תחזית

הדו"ח נערך לפני 2 שעות ו 13דקות, בשעה 23:00 UTC
תחזית בתוקף מ 21 ב 00 UTC עד 21 ב 24 UTC
רוח 10קשר מכיוון מערב/צפון-מערב
ראות 10 קילומטר או יותר
עננים פזורים בגובה 1800רגל
מ 21 ב 0330UTC
רוח 5קשר מכיוון צפון-מזרח
ראות: 7000מטר
מעונן בגובה 1000רגל
יעשה מ
21 ב 08 UTC עד 21 ב 10 UTC
רוח 2קשר עם כיוונים משתנים
ראות: 4500מטר
מעונן בגובה 500רגל
אד
יעשה מ
21 ב 13 UTC עד 21 ב 15 UTC
ראות: 7000מטר
מעונן בגובה 1200רגל

TAF: SPSO 202300Z 2100/2124 29010KT 9999 SCT018 TX20/2119Z TN16/2111Z FM210330 05005KT 7000 OVC010 BECMG 2108/2110 VRB02KT 4500 BR OVC005 BECMG 2113/2115 7000 NSW OVC012

תצפיות ותחזיות מזג אוויר לגבי יותר מ- 4,000 שדות תעופה ברחבי העולם. דוחות METAR ו- TAF.

התחנות הזמינות מסומנות בנקודות צהובות ואדומות על גבי המפה.

העבר את העכבר לנקודה הצבעונית על מנת לראות את שם התחנה.

לאחר מכן, לחץ כדי לראות את תוכן ואת תחזיות מזג האוויר.

כדי לשנות את המפה: לחץ על הכפתורים הירוקים עם הפלוס השחור כדי להתקרב; על הכפתור הירוק עם המקף כדי להתרחק; או בחיצים הירוקים למפות סמוכות.


METAR-TAF: